sensor_id;sensor_type;location;lat;lon;timestamp;pressure;altitude;pressure_sealevel;temperature
48003;BMP280;33768;48.578;11.574;2022-12-05T00:02:08;96184.63;;;2.72
48003;BMP280;33768;48.578;11.574;2022-12-05T00:05:12;96191.25;;;2.71
48003;BMP280;33768;48.578;11.574;2022-12-05T00:08:17;96186.31;;;2.69
48003;BMP280;33768;48.578;11.574;2022-12-05T00:11:23;96194.41;;;2.69
48003;BMP280;33768;48.578;11.574;2022-12-05T00:14:28;96204.94;;;2.67
48003;BMP280;33768;48.578;11.574;2022-12-05T00:17:32;96199.56;;;2.67
48003;BMP280;33768;48.578;11.574;2022-12-05T00:20:36;96199.28;;;2.65
48003;BMP280;33768;48.578;11.574;2022-12-05T00:23:40;96204.69;;;2.65
48003;BMP280;33768;48.578;11.574;2022-12-05T00:26:44;96200.03;;;2.66
48003;BMP280;33768;48.578;11.574;2022-12-05T00:29:48;96203.72;;;2.68
48003;BMP280;33768;48.578;11.574;2022-12-05T00:32:53;96216.94;;;2.66
48003;BMP280;33768;48.578;11.574;2022-12-05T00:36:05;96232.09;;;2.64
48003;BMP280;33768;48.578;11.574;2022-12-05T00:39:11;96233.75;;;2.56
48003;BMP280;33768;48.578;11.574;2022-12-05T00:42:16;96234.69;;;2.53
48003;BMP280;33768;48.578;11.574;2022-12-05T00:45:21;96236.16;;;2.54
48003;BMP280;33768;48.578;11.574;2022-12-05T00:48:30;96230.31;;;2.55
48003;BMP280;33768;48.578;11.574;2022-12-05T00:51:37;96232.53;;;2.57
48003;BMP280;33768;48.578;11.574;2022-12-05T00:54:42;96244.06;;;2.57
48003;BMP280;33768;48.578;11.574;2022-12-05T00:57:46;96242.84;;;2.58
48003;BMP280;33768;48.578;11.574;2022-12-05T01:00:50;96250.44;;;2.60
48003;BMP280;33768;48.578;11.574;2022-12-05T01:03:56;96248.97;;;2.59
48003;BMP280;33768;48.578;11.574;2022-12-05T01:07:00;96262.16;;;2.57
48003;BMP280;33768;48.578;11.574;2022-12-05T01:10:05;96272.00;;;2.60
48003;BMP280;33768;48.578;11.574;2022-12-05T01:13:09;96272.25;;;2.62
48003;BMP280;33768;48.578;11.574;2022-12-05T01:16:20;96261.97;;;2.60
48003;BMP280;33768;48.578;11.574;2022-12-05T01:19:30;96264.94;;;2.62
48003;BMP280;33768;48.578;11.574;2022-12-05T01:22:34;96257.09;;;2.64
48003;BMP280;33768;48.578;11.574;2022-12-05T01:25:42;96262.00;;;2.66
48003;BMP280;33768;48.578;11.574;2022-12-05T01:28:47;96274.75;;;2.65
48003;BMP280;33768;48.578;11.574;2022-12-05T01:31:53;96270.50;;;2.59
48003;BMP280;33768;48.578;11.574;2022-12-05T01:34:58;96275.69;;;2.62
48003;BMP280;33768;48.578;11.574;2022-12-05T01:38:02;96272.25;;;2.62
48003;BMP280;33768;48.578;11.574;2022-12-05T01:41:10;96284.97;;;2.61
48003;BMP280;33768;48.578;11.574;2022-12-05T01:47:20;96308.69;;;2.52
48003;BMP280;33768;48.578;11.574;2022-12-05T01:50:26;96308.13;;;2.48
48003;BMP280;33768;48.578;11.574;2022-12-05T01:53:30;96315.00;;;2.49
48003;BMP280;33768;48.578;11.574;2022-12-05T01:56:35;96324.56;;;2.50
48003;BMP280;33768;48.578;11.574;2022-12-05T01:59:49;96325.53;;;2.47
48003;BMP280;33768;48.578;11.574;2022-12-05T02:02:56;96330.63;;;2.45
48003;BMP280;33768;48.578;11.574;2022-12-05T02:06:03;96330.63;;;2.45
48003;BMP280;33768;48.578;11.574;2022-12-05T02:09:08;96326.72;;;2.46
48003;BMP280;33768;48.578;11.574;2022-12-05T02:12:12;96349.50;;;2.45
48003;BMP280;33768;48.578;11.574;2022-12-05T02:15:41;96343.84;;;2.43
48003;BMP280;33768;48.578;11.574;2022-12-05T02:26:13;96334.97;;;2.37
48003;BMP280;33768;48.578;11.574;2022-12-05T02:33:05;96367.41;;;2.28
48003;BMP280;33768;48.578;11.574;2022-12-05T02:36:17;96374.75;;;2.28
48003;BMP280;33768;48.578;11.574;2022-12-05T02:39:31;96365.41;;;2.23
48003;BMP280;33768;48.578;11.574;2022-12-05T02:42:59;96357.31;;;2.23
48003;BMP280;33768;48.578;11.574;2022-12-05T02:46:08;96367.81;;;2.21
48003;BMP280;33768;48.578;11.574;2022-12-05T02:49:22;96379.81;;;2.20
48003;BMP280;33768;48.578;11.574;2022-12-05T02:52:29;96383.72;;;2.19
48003;BMP280;33768;48.578;11.574;2022-12-05T02:55:34;96386.66;;;2.21
48003;BMP280;33768;48.578;11.574;2022-12-05T02:58:43;96381.28;;;2.21
48003;BMP280;33768;48.578;11.574;2022-12-05T03:01:48;96364.19;;;2.24
48003;BMP280;33768;48.578;11.574;2022-12-05T03:04:55;96375.66;;;2.19
48003;BMP280;33768;48.578;11.574;2022-12-05T03:08:01;96384.47;;;2.20
48003;BMP280;33768;48.578;11.574;2022-12-05T03:11:07;96392.47;;;2.15
48003;BMP280;33768;48.578;11.574;2022-12-05T03:14:15;96402.31;;;2.17
48003;BMP280;33768;48.578;11.574;2022-12-05T03:17:24;96376.84;;;2.18
48003;BMP280;33768;48.578;11.574;2022-12-05T03:20:36;96408.06;;;2.11
48003;BMP280;33768;48.578;11.574;2022-12-05T03:23:45;96404.09;;;2.06
48003;BMP280;33768;48.578;11.574;2022-12-05T03:27:07;96404.56;;;2.05
48003;BMP280;33768;48.578;11.574;2022-12-05T03:30:16;96403.84;;;2.04
48003;BMP280;33768;48.578;11.574;2022-12-05T03:33:23;96416.97;;;1.97
48003;BMP280;33768;48.578;11.574;2022-12-05T03:36:36;96412.50;;;1.94
48003;BMP280;33768;48.578;11.574;2022-12-05T03:39:47;96408.41;;;1.98
48003;BMP280;33768;48.578;11.574;2022-12-05T03:42:59;96422.69;;;2.04
48003;BMP280;33768;48.578;11.574;2022-12-05T03:46:26;96425.38;;;2.04
48003;BMP280;33768;48.578;11.574;2022-12-05T03:49:36;96421.25;;;2.09
48003;BMP280;33768;48.578;11.574;2022-12-05T03:52:45;96423.97;;;2.09
48003;BMP280;33768;48.578;11.574;2022-12-05T03:55:58;96431.69;;;2.01
48003;BMP280;33768;48.578;11.574;2022-12-05T04:02:32;96445.47;;;1.89
48003;BMP280;33768;48.578;11.574;2022-12-05T04:05:42;96443.97;;;1.88
48003;BMP280;33768;48.578;11.574;2022-12-05T04:08:52;96448.28;;;1.80
48003;BMP280;33768;48.578;11.574;2022-12-05T04:12:01;96452.44;;;1.81
48003;BMP280;33768;48.578;11.574;2022-12-05T04:15:14;96461.00;;;1.80
48003;BMP280;33768;48.578;11.574;2022-12-05T04:18:21;96465.81;;;1.76
48003;BMP280;33768;48.578;11.574;2022-12-05T04:21:33;96469.72;;;1.75
48003;BMP280;33768;48.578;11.574;2022-12-05T04:24:43;96480.00;;;1.76
48003;BMP280;33768;48.578;11.574;2022-12-05T04:31:32;96492.28;;;1.77
48003;BMP280;33768;48.578;11.574;2022-12-05T04:34:38;96487.41;;;1.81
48003;BMP280;33768;48.578;11.574;2022-12-05T04:37:46;96485.94;;;1.80
48003;BMP280;33768;48.578;11.574;2022-12-05T04:44:04;96482.97;;;1.78
48003;BMP280;33768;48.578;11.574;2022-12-05T04:47:11;96483.25;;;1.80
48003;BMP280;33768;48.578;11.574;2022-12-05T04:50:18;96474.53;;;1.85
48003;BMP280;33768;48.578;11.574;2022-12-05T04:53:26;96486.31;;;1.87
48003;BMP280;33768;48.578;11.574;2022-12-05T04:56:33;96465.50;;;1.88
48003;BMP280;33768;48.578;11.574;2022-12-05T04:59:37;96469.72;;;1.89
48003;BMP280;33768;48.578;11.574;2022-12-05T05:02:50;96482.59;;;1.85
48003;BMP280;33768;48.578;11.574;2022-12-05T05:05:56;96479.63;;;1.83
48003;BMP280;33768;48.578;11.574;2022-12-05T05:09:00;96486.03;;;1.86
48003;BMP280;33768;48.578;11.574;2022-12-05T05:12:05;96491.69;;;1.87
48003;BMP280;33768;48.578;11.574;2022-12-05T05:15:09;96489.75;;;1.88
48003;BMP280;33768;48.578;11.574;2022-12-05T05:18:13;96483.41;;;1.91
48003;BMP280;33768;48.578;11.574;2022-12-05T05:24:23;96474.16;;;1.92
48003;BMP280;33768;48.578;11.574;2022-12-05T05:27:28;96481.75;;;1.93
48003;BMP280;33768;48.578;11.574;2022-12-05T05:30:32;96492.06;;;1.95
48003;BMP280;33768;48.578;11.574;2022-12-05T05:33:37;96492.34;;;1.97
48003;BMP280;33768;48.578;11.574;2022-12-05T05:36:41;96494.25;;;1.96
48003;BMP280;33768;48.578;11.574;2022-12-05T05:39:46;96487.97;;;1.99
48003;BMP280;33768;48.578;11.574;2022-12-05T05:42:50;96480.13;;;2.01
48003;BMP280;33768;48.578;11.574;2022-12-05T05:45:55;96480.13;;;2.01
48003;BMP280;33768;48.578;11.574;2022-12-05T05:48:59;96480.34;;;1.98
48003;BMP280;33768;48.578;11.574;2022-12-05T05:52:04;96491.56;;;1.96
48003;BMP280;33768;48.578;11.574;2022-12-05T05:55:08;96483.78;;;1.98
48003;BMP280;33768;48.578;11.574;2022-12-05T05:58:12;96478.22;;;2.02
48003;BMP280;33768;48.578;11.574;2022-12-05T06:01:18;96480.91;;;2.02
48003;BMP280;33768;48.578;11.574;2022-12-05T06:04:25;96490.75;;;2.05
48003;BMP280;33768;48.578;11.574;2022-12-05T06:07:29;96491.56;;;2.11
48003;BMP280;33768;48.578;11.574;2022-12-05T06:10:34;96494.25;;;2.11
48003;BMP280;33768;48.578;11.574;2022-12-05T06:13:38;96506.69;;;2.08
48003;BMP280;33768;48.578;11.574;2022-12-05T06:16:42;96514.31;;;2.10
48003;BMP280;33768;48.578;11.574;2022-12-05T06:19:46;96516.28;;;2.09
48003;BMP280;33768;48.578;11.574;2022-12-05T06:22:51;96508.19;;;2.09
48003;BMP280;33768;48.578;11.574;2022-12-05T06:25:55;96521.16;;;2.11
48003;BMP280;33768;48.578;11.574;2022-12-05T06:28:59;96513.81;;;2.11
48003;BMP280;33768;48.578;11.574;2022-12-05T06:32:04;96516.06;;;2.13
48003;BMP280;33768;48.578;11.574;2022-12-05T06:35:08;96524.69;;;2.17
48003;BMP280;33768;48.578;11.574;2022-12-05T06:38:18;96540.84;;;2.17
48003;BMP280;33768;48.578;11.574;2022-12-05T06:41:23;96538.13;;;2.17
48003;BMP280;33768;48.578;11.574;2022-12-05T06:44:38;96550.88;;;2.16
48003;BMP280;33768;48.578;11.574;2022-12-05T06:47:46;96547.50;;;2.21
48003;BMP280;33768;48.578;11.574;2022-12-05T06:50:52;96549.75;;;2.22
48003;BMP280;33768;48.578;11.574;2022-12-05T06:53:56;96554.66;;;2.24
48003;BMP280;33768;48.578;11.574;2022-12-05T06:57:00;96550.50;;;2.23
48003;BMP280;33768;48.578;11.574;2022-12-05T07:00:05;96558.84;;;2.25
48003;BMP280;33768;48.578;11.574;2022-12-05T07:03:28;96567.00;;;2.30
48003;BMP280;33768;48.578;11.574;2022-12-05T07:06:33;96573.22;;;2.36
48003;BMP280;33768;48.578;11.574;2022-12-05T07:09:38;96583.06;;;2.39
48003;BMP280;33768;48.578;11.574;2022-12-05T07:12:54;96590.88;;;2.37
48003;BMP280;33768;48.578;11.574;2022-12-05T07:15:59;96588.19;;;2.37
48003;BMP280;33768;48.578;11.574;2022-12-05T07:19:03;96599.97;;;2.40
48003;BMP280;33768;48.578;11.574;2022-12-05T07:22:07;96600.22;;;2.42
48003;BMP280;33768;48.578;11.574;2022-12-05T07:25:11;96600.78;;;2.46
48003;BMP280;33768;48.578;11.574;2022-12-05T07:28:15;96592.25;;;2.47
48003;BMP280;33768;48.578;11.574;2022-12-05T07:31:21;96601.81;;;2.48
48003;BMP280;33768;48.578;11.574;2022-12-05T07:34:25;96600.78;;;2.46
48003;BMP280;33768;48.578;11.574;2022-12-05T07:37:30;96604.50;;;2.48
48003;BMP280;33768;48.578;11.574;2022-12-05T07:40:36;96602.63;;;2.54
48003;BMP280;33768;48.578;11.574;2022-12-05T07:43:40;96605.41;;;2.59
48003;BMP280;33768;48.578;11.574;2022-12-05T07:46:44;96609.38;;;2.64
48003;BMP280;33768;48.578;11.574;2022-12-05T07:49:49;96618.41;;;2.61
48003;BMP280;33768;48.578;11.574;2022-12-05T07:52:53;96629.75;;;2.65
48003;BMP280;33768;48.578;11.574;2022-12-05T07:55:58;96628.81;;;2.68
48003;BMP280;33768;48.578;11.574;2022-12-05T07:59:03;96621.75;;;2.70
48003;BMP280;33768;48.578;11.574;2022-12-05T08:02:07;96618.84;;;2.74
48003;BMP280;33768;48.578;11.574;2022-12-05T08:05:12;96617.91;;;2.77
48003;BMP280;33768;48.578;11.574;2022-12-05T08:08:16;96616.22;;;2.79
48003;BMP280;33768;48.578;11.574;2022-12-05T08:11:22;96605.91;;;2.78
48003;BMP280;33768;48.578;11.574;2022-12-05T08:14:26;96611.56;;;2.79
48003;BMP280;33768;48.578;11.574;2022-12-05T08:17:30;96616.28;;;2.84
48003;BMP280;33768;48.578;11.574;2022-12-05T08:20:36;96607.28;;;2.87
48003;BMP280;33768;48.578;11.574;2022-12-05T08:23:41;96604.84;;;2.89
48003;BMP280;33768;48.578;11.574;2022-12-05T08:26:45;96607.13;;;2.96
48003;BMP280;33768;48.578;11.574;2022-12-05T08:29:50;96609.84;;;2.96
48003;BMP280;33768;48.578;11.574;2022-12-05T08:32:54;96615.03;;;3.00
48003;BMP280;33768;48.578;11.574;2022-12-05T08:36:03;96625.63;;;3.03
48003;BMP280;33768;48.578;11.574;2022-12-05T08:39:09;96620.75;;;3.07
48003;BMP280;33768;48.578;11.574;2022-12-05T08:42:15;96614.91;;;3.09
48003;BMP280;33768;48.578;11.574;2022-12-05T08:45:22;96629.41;;;3.11
48003;BMP280;33768;48.578;11.574;2022-12-05T08:48:28;96639.53;;;3.16
48003;BMP280;33768;48.578;11.574;2022-12-05T08:51:32;96638.56;;;3.19
48003;BMP280;33768;48.578;11.574;2022-12-05T08:54:36;96636.16;;;3.21
48003;BMP280;33768;48.578;11.574;2022-12-05T08:57:40;96631.03;;;3.23
48003;BMP280;33768;48.578;11.574;2022-12-05T09:00:45;96652.13;;;3.24
48003;BMP280;33768;48.578;11.574;2022-12-05T09:03:49;96645.31;;;3.29
48003;BMP280;33768;48.578;11.574;2022-12-05T09:06:53;96659.28;;;3.27
48003;BMP280;33768;48.578;11.574;2022-12-05T09:09:57;96657.13;;;3.31
48003;BMP280;33768;48.578;11.574;2022-12-05T09:13:01;96652.69;;;3.28
48003;BMP280;33768;48.578;11.574;2022-12-05T09:16:14;96671.19;;;3.35
48003;BMP280;33768;48.578;11.574;2022-12-05T09:19:19;96655.97;;;3.38
48003;BMP280;33768;48.578;11.574;2022-12-05T09:22:23;96668.25;;;3.39
48003;BMP280;33768;48.578;11.574;2022-12-05T09:25:27;96668.31;;;3.44
48003;BMP280;33768;48.578;11.574;2022-12-05T09:28:32;96666.38;;;3.44
48003;BMP280;33768;48.578;11.574;2022-12-05T09:31:37;96661.47;;;3.43
48003;BMP280;33768;48.578;11.574;2022-12-05T09:34:41;96667.53;;;3.38
48003;BMP280;33768;48.578;11.574;2022-12-05T09:37:45;96671.44;;;3.37
48003;BMP280;33768;48.578;11.574;2022-12-05T09:40:55;96662.47;;;3.45
48003;BMP280;33768;48.578;11.574;2022-12-05T09:44:04;96675.06;;;3.54
48003;BMP280;33768;48.578;11.574;2022-12-05T09:47:31;96666.56;;;3.61
48003;BMP280;33768;48.578;11.574;2022-12-05T09:50:49;96674.47;;;3.64
48003;BMP280;33768;48.578;11.574;2022-12-05T09:53:56;96675.94;;;3.65
48003;BMP280;33768;48.578;11.574;2022-12-05T09:57:02;96676.75;;;3.71
48003;BMP280;33768;48.578;11.574;2022-12-05T10:00:08;96678.03;;;3.75
48003;BMP280;33768;48.578;11.574;2022-12-05T10:03:30;96673.38;;;3.76
48003;BMP280;33768;48.578;11.574;2022-12-05T10:13:52;96654.97;;;4.00
48003;BMP280;33768;48.578;11.574;2022-12-05T10:17:07;96657.19;;;4.01
48003;BMP280;33768;48.578;11.574;2022-12-05T10:20:21;96663.84;;;4.05
48003;BMP280;33768;48.578;11.574;2022-12-05T10:23:29;96661.97;;;4.11
48003;BMP280;33768;48.578;11.574;2022-12-05T10:26:44;96657.84;;;4.16
48003;BMP280;33768;48.578;11.574;2022-12-05T10:33:17;96661.38;;;4.27
48003;BMP280;33768;48.578;11.574;2022-12-05T10:36:24;96655.03;;;4.35
48003;BMP280;33768;48.578;11.574;2022-12-05T10:39:29;96649.94;;;4.43
48003;BMP280;33768;48.578;11.574;2022-12-05T10:42:34;96656.09;;;4.43
48003;BMP280;33768;48.578;11.574;2022-12-05T10:45:42;96656.84;;;4.44
48003;BMP280;33768;48.578;11.574;2022-12-05T10:48:47;96661.94;;;4.36
48003;BMP280;33768;48.578;11.574;2022-12-05T10:51:51;96651.34;;;4.33
48003;BMP280;33768;48.578;11.574;2022-12-05T10:55:03;96641.72;;;4.27
48003;BMP280;33768;48.578;11.574;2022-12-05T11:01:14;96633.28;;;4.19
48003;BMP280;33768;48.578;11.574;2022-12-05T11:04:25;96642.44;;;4.27
48003;BMP280;33768;48.578;11.574;2022-12-05T11:10:36;96631.69;;;4.33
48003;BMP280;33768;48.578;11.574;2022-12-05T11:13:56;96638.34;;;4.37
48003;BMP280;33768;48.578;11.574;2022-12-05T11:17:02;96639.13;;;4.43
48003;BMP280;33768;48.578;11.574;2022-12-05T11:23:26;96630.22;;;4.67
48003;BMP280;33768;48.578;11.574;2022-12-05T11:26:38;96627.84;;;4.75
48003;BMP280;33768;48.578;11.574;2022-12-05T11:29:45;96628.59;;;4.81
48003;BMP280;33768;48.578;11.574;2022-12-05T11:33:17;96635.25;;;4.80
48003;BMP280;33768;48.578;11.574;2022-12-05T11:36:42;96634.81;;;4.87
48003;BMP280;33768;48.578;11.574;2022-12-05T11:39:47;96630.16;;;4.93
48003;BMP280;33768;48.578;11.574;2022-12-05T11:43:11;96628.44;;;4.95
48003;BMP280;33768;48.578;11.574;2022-12-05T11:50:07;96610.03;;;4.99
48003;BMP280;33768;48.578;11.574;2022-12-05T11:53:38;96607.56;;;5.01
48003;BMP280;33768;48.578;11.574;2022-12-05T11:56:55;96609.06;;;5.02
48003;BMP280;33768;48.578;11.574;2022-12-05T12:07:03;96629.16;;;4.90
48003;BMP280;33768;48.578;11.574;2022-12-05T12:13:40;96634.47;;;4.74
48003;BMP280;33768;48.578;11.574;2022-12-05T12:48:05;96621.75;;;4.85
48003;BMP280;33768;48.578;11.574;2022-12-05T12:51:12;96624.19;;;4.83
48003;BMP280;33768;48.578;11.574;2022-12-05T13:02:17;96614.84;;;4.79
48003;BMP280;33768;48.578;11.574;2022-12-05T13:05:37;96611.16;;;4.82
48003;BMP280;33768;48.578;11.574;2022-12-05T13:09:10;96610.22;;;4.90
48003;BMP280;33768;48.578;11.574;2022-12-05T13:12:22;96610.47;;;4.92
48003;BMP280;33768;48.578;11.574;2022-12-05T13:16:15;96610.97;;;4.91
48003;BMP280;33768;48.578;11.574;2022-12-05T13:18:58;96608.50;;;4.87
48003;BMP280;33768;48.578;11.574;2022-12-05T13:22:03;96611.19;;;4.87
48003;BMP280;33768;48.578;11.574;2022-12-05T13:25:15;96600.41;;;4.93
48003;BMP280;33768;48.578;11.574;2022-12-05T13:28:29;96607.34;;;4.99
48003;BMP280;33768;48.578;11.574;2022-12-05T13:31:39;96604.66;;;5.04
48003;BMP280;33768;48.578;11.574;2022-12-05T13:34:46;96599.44;;;5.01
48003;BMP280;33768;48.578;11.574;2022-12-05T13:37:52;96607.56;;;5.01
48003;BMP280;33768;48.578;11.574;2022-12-05T13:41:15;96612.75;;;4.99
48003;BMP280;33768;48.578;11.574;2022-12-05T13:44:51;96621.09;;;5.01
48003;BMP280;33768;48.578;11.574;2022-12-05T13:48:03;96616.41;;;4.96
48003;BMP280;33768;48.578;11.574;2022-12-05T13:51:20;96623.00;;;4.90
48003;BMP280;33768;48.578;11.574;2022-12-05T13:54:28;96613.41;;;4.89
48003;BMP280;33768;48.578;11.574;2022-12-05T14:00:42;96603.28;;;4.84
48003;BMP280;33768;48.578;11.574;2022-12-05T14:06:54;96609.47;;;4.84
48003;BMP280;33768;48.578;11.574;2022-12-05T14:09:59;96611.19;;;4.87
48003;BMP280;33768;48.578;11.574;2022-12-05T14:33:38;96608.44;;;4.76
48003;BMP280;33768;48.578;11.574;2022-12-05T14:43:32;96607.63;;;4.70
48003;BMP280;33768;48.578;11.574;2022-12-05T14:46:43;96604.66;;;4.68
48003;BMP280;33768;48.578;11.574;2022-12-05T14:49:52;96616.72;;;4.67
48003;BMP280;33768;48.578;11.574;2022-12-05T14:56:25;96627.28;;;4.66
48003;BMP280;33768;48.578;11.574;2022-12-05T15:03:30;96624.53;;;4.60
48003;BMP280;33768;48.578;11.574;2022-12-05T15:06:56;96633.59;;;4.57
48003;BMP280;33768;48.578;11.574;2022-12-05T15:11:24;96614.16;;;4.53
48003;BMP280;33768;48.578;11.574;2022-12-05T15:14:39;96621.25;;;4.51
48003;BMP280;33768;48.578;11.574;2022-12-05T15:21:21;96638.41;;;4.42
48003;BMP280;33768;48.578;11.574;2022-12-05T15:24:26;96637.16;;;4.43
48003;BMP280;33768;48.578;11.574;2022-12-05T15:27:31;96652.19;;;4.44
48003;BMP280;33768;48.578;11.574;2022-12-05T15:30:37;96652.44;;;4.46
48003;BMP280;33768;48.578;11.574;2022-12-05T15:33:51;96661.28;;;4.47
48003;BMP280;33768;48.578;11.574;2022-12-05T15:40:19;96651.22;;;4.47
48003;BMP280;33768;48.578;11.574;2022-12-05T15:43:26;96650.47;;;4.47
48003;BMP280;33768;48.578;11.574;2022-12-05T15:46:31;96642.09;;;4.45
48003;BMP280;33768;48.578;11.574;2022-12-05T15:49:35;96635.47;;;4.46
48003;BMP280;33768;48.578;11.574;2022-12-05T15:52:46;96634.00;;;4.45
48003;BMP280;33768;48.578;11.574;2022-12-05T15:55:55;96639.41;;;4.45
48003;BMP280;33768;48.578;11.574;2022-12-05T15:59:12;96639.66;;;4.47
48003;BMP280;33768;48.578;11.574;2022-12-05T16:02:23;96649.75;;;4.46
48003;BMP280;33768;48.578;11.574;2022-12-05T16:08:42;96649.72;;;4.41
48003;BMP280;33768;48.578;11.574;2022-12-05T16:15:24;96659.97;;;4.37
48003;BMP280;33768;48.578;11.574;2022-12-05T16:18:31;96664.38;;;4.35
48003;BMP280;33768;48.578;11.574;2022-12-05T16:21:37;96666.81;;;4.33
48003;BMP280;33768;48.578;11.574;2022-12-05T16:25:10;96651.34;;;4.33
48003;BMP280;33768;48.578;11.574;2022-12-05T16:28:20;96659.94;;;4.32
48003;BMP280;33768;48.578;11.574;2022-12-05T16:31:25;96660.91;;;4.29
48003;BMP280;33768;48.578;11.574;2022-12-05T16:34:32;96653.25;;;4.27
48003;BMP280;33768;48.578;11.574;2022-12-05T16:37:37;96658.66;;;4.27
48003;BMP280;33768;48.578;11.574;2022-12-05T16:43:49;96655.97;;;4.27
48003;BMP280;33768;48.578;11.574;2022-12-05T16:46:56;96661.38;;;4.27
48003;BMP280;33768;48.578;11.574;2022-12-05T16:50:28;96663.31;;;4.27
48003;BMP280;33768;48.578;11.574;2022-12-05T16:53:33;96661.59;;;4.24
48003;BMP280;33768;48.578;11.574;2022-12-05T16:56:37;96668.00;;;4.26
48003;BMP280;33768;48.578;11.574;2022-12-05T16:59:43;96667.72;;;4.24
48003;BMP280;33768;48.578;11.574;2022-12-05T17:02:48;96662.78;;;4.23
48003;BMP280;33768;48.578;11.574;2022-12-05T17:05:53;96657.88;;;4.21
48003;BMP280;33768;48.578;11.574;2022-12-05T17:08:57;96664.03;;;4.22
48003;BMP280;33768;48.578;11.574;2022-12-05T17:12:17;96668.69;;;4.21
48003;BMP280;33768;48.578;11.574;2022-12-05T17:15:23;96668.69;;;4.21
48003;BMP280;33768;48.578;11.574;2022-12-05T17:18:28;96664.50;;;4.20
48003;BMP280;33768;48.578;11.574;2022-12-05T17:21:32;96649.97;;;4.18
48003;BMP280;33768;48.578;11.574;2022-12-05T17:24:37;96648.22;;;4.15
48003;BMP280;33768;48.578;11.574;2022-12-05T17:27:41;96647.50;;;4.14
48003;BMP280;33768;48.578;11.574;2022-12-05T17:30:46;96654.38;;;4.15
48003;BMP280;33768;48.578;11.574;2022-12-05T17:33:52;96653.38;;;4.13
48003;BMP280;33768;48.578;11.574;2022-12-05T17:36:56;96648.72;;;4.13
48003;BMP280;33768;48.578;11.574;2022-12-05T17:40:00;96666.41;;;4.14
48003;BMP280;33768;48.578;11.574;2022-12-05T17:43:04;96674.78;;;4.16
48003;BMP280;33768;48.578;11.574;2022-12-05T17:46:08;96671.59;;;4.18
48003;BMP280;33768;48.578;11.574;2022-12-05T17:49:14;96680.91;;;4.17
48003;BMP280;33768;48.578;11.574;2022-12-05T17:52:18;96682.88;;;4.16
48003;BMP280;33768;48.578;11.574;2022-12-05T17:55:25;96689.75;;;4.17
48003;BMP280;33768;48.578;11.574;2022-12-05T17:58:30;96693.69;;;4.16
48003;BMP280;33768;48.578;11.574;2022-12-05T18:01:34;96695.66;;;4.16
48003;BMP280;33768;48.578;11.574;2022-12-05T18:04:39;96691.72;;;4.17
48003;BMP280;33768;48.578;11.574;2022-12-05T18:07:44;96692.19;;;4.15
48003;BMP280;33768;48.578;11.574;2022-12-05T18:10:48;96687.06;;;4.17
48003;BMP280;33768;48.578;11.574;2022-12-05T18:13:55;96686.31;;;4.17
48003;BMP280;33768;48.578;11.574;2022-12-05T18:16:59;96686.31;;;4.17
48003;BMP280;33768;48.578;11.574;2022-12-05T18:20:06;96681.16;;;4.13
48003;BMP280;33768;48.578;11.574;2022-12-05T18:23:11;96688.75;;;4.15
48003;BMP280;33768;48.578;11.574;2022-12-05T18:26:15;96681.16;;;4.13
48003;BMP280;33768;48.578;11.574;2022-12-05T18:29:19;96694.16;;;4.15
48003;BMP280;33768;48.578;11.574;2022-12-05T18:32:24;96691.47;;;4.15
48003;BMP280;33768;48.578;11.574;2022-12-05T18:35:28;96701.53;;;4.14
48003;BMP280;33768;48.578;11.574;2022-12-05T18:38:53;96689.97;;;4.14
48003;BMP280;33768;48.578;11.574;2022-12-05T18:41:57;96701.78;;;4.16
48003;BMP280;33768;48.578;11.574;2022-12-05T18:45:02;96692.97;;;4.16
48003;BMP280;33768;48.578;11.574;2022-12-05T18:48:07;96692.19;;;4.15
48003;BMP280;33768;48.578;11.574;2022-12-05T18:51:14;96687.28;;;4.14
48003;BMP280;33768;48.578;11.574;2022-12-05T18:54:19;96689.25;;;4.13
48003;BMP280;33768;48.578;11.574;2022-12-05T18:57:23;96690.19;;;4.10
48003;BMP280;33768;48.578;11.574;2022-12-05T19:00:28;96699.78;;;4.11
48003;BMP280;33768;48.578;11.574;2022-12-05T19:03:33;96694.56;;;4.08
48003;BMP280;33768;48.578;11.574;2022-12-05T19:06:38;96694.31;;;4.06
48003;BMP280;33768;48.578;11.574;2022-12-05T19:09:44;96702.94;;;4.10
48003;BMP280;33768;48.578;11.574;2022-12-05T19:12:48;96698.56;;;4.12
48003;BMP280;33768;48.578;11.574;2022-12-05T19:16:00;96704.19;;;4.09
48003;BMP280;33768;48.578;11.574;2022-12-05T19:19:06;96698.28;;;4.10
48003;BMP280;33768;48.578;11.574;2022-12-05T19:22:11;96693.63;;;4.11
48003;BMP280;33768;48.578;11.574;2022-12-05T19:25:15;96677.63;;;4.07
48003;BMP280;33768;48.578;11.574;2022-12-05T19:28:20;96677.84;;;4.04
48003;BMP280;33768;48.578;11.574;2022-12-05T19:31:25;96681.75;;;4.03
48003;BMP280;33768;48.578;11.574;2022-12-05T19:34:29;96693.78;;;4.02
48003;BMP280;33768;48.578;11.574;2022-12-05T19:37:34;96679.28;;;4.00
48003;BMP280;33768;48.578;11.574;2022-12-05T19:40:38;96679.50;;;3.96
48003;BMP280;33768;48.578;11.574;2022-12-05T19:43:43;96692.50;;;3.98
48003;BMP280;33768;48.578;11.574;2022-12-05T19:46:48;96706.28;;;4.00
48003;BMP280;33768;48.578;11.574;2022-12-05T19:50:08;96715.59;;;3.99
48003;BMP280;33768;48.578;11.574;2022-12-05T19:53:12;96703.56;;;4.00
48003;BMP280;33768;48.578;11.574;2022-12-05T19:56:21;96703.56;;;4.00
48003;BMP280;33768;48.578;11.574;2022-12-05T19:59:26;96697.44;;;3.99
48003;BMP280;33768;48.578;11.574;2022-12-05T20:02:30;96702.09;;;3.99
48003;BMP280;33768;48.578;11.574;2022-12-05T20:05:34;96697.44;;;3.99
48003;BMP280;33768;48.578;11.574;2022-12-05T20:08:38;96684.41;;;3.98
48003;BMP280;33768;48.578;11.574;2022-12-05T20:11:43;96685.16;;;3.98
48003;BMP280;33768;48.578;11.574;2022-12-05T20:14:48;96692.03;;;3.99
48003;BMP280;33768;48.578;11.574;2022-12-05T20:17:52;96694.97;;;3.96
48003;BMP280;33768;48.578;11.574;2022-12-05T20:20:57;96683.34;;;3.90
48003;BMP280;33768;48.578;11.574;2022-12-05T20:24:03;96678.66;;;3.90
48003;BMP280;33768;48.578;11.574;2022-12-05T20:27:07;96686.03;;;3.90
48003;BMP280;33768;48.578;11.574;2022-12-05T20:30:11;96687.72;;;3.87
48003;BMP280;33768;48.578;11.574;2022-12-05T20:33:16;96693.63;;;3.86
48003;BMP280;33768;48.578;11.574;2022-12-05T20:36:25;96695.03;;;3.81
48003;BMP280;33768;48.578;11.574;2022-12-05T20:39:30;96688.13;;;3.80
48003;BMP280;33768;48.578;11.574;2022-12-05T20:42:35;96687.16;;;3.78